sensor_id;sensor_type;location;lat;lon;timestamp;temperature;humidity
9237;DHT22;24579;42.810;23.214;2022-07-12T00:00:19;11.10;99.90
9237;DHT22;24579;42.810;23.214;2022-07-12T00:03:00;11.00;99.90
9237;DHT22;24579;42.810;23.214;2022-07-12T00:05:35;11.10;99.90
9237;DHT22;24579;42.810;23.214;2022-07-12T00:08:10;11.10;99.90
9237;DHT22;24579;42.810;23.214;2022-07-12T00:10:42;11.30;99.90
9237;DHT22;24579;42.810;23.214;2022-07-12T00:13:18;11.10;99.90
9237;DHT22;24579;42.810;23.214;2022-07-12T00:16:00;11.10;99.90
9237;DHT22;24579;42.810;23.214;2022-07-12T00:18:35;11.10;99.90
9237;DHT22;24579;42.810;23.214;2022-07-12T00:21:08;11.30;99.90
9237;DHT22;24579;42.810;23.214;2022-07-12T00:23:48;11.10;99.90
9237;DHT22;24579;42.810;23.214;2022-07-12T00:26:22;11.10;99.90
9237;DHT22;24579;42.810;23.214;2022-07-12T00:29:03;11.10;99.90
9237;DHT22;24579;42.810;23.214;2022-07-12T00:31:44;11.10;99.90
9237;DHT22;24579;42.810;23.214;2022-07-12T00:34:12;11.10;99.90
9237;DHT22;24579;42.810;23.214;2022-07-12T00:36:55;11.10;99.90
9237;DHT22;24579;42.810;23.214;2022-07-12T00:39:35;11.00;99.90
9237;DHT22;24579;42.810;23.214;2022-07-12T00:42:08;10.80;99.90
9237;DHT22;24579;42.810;23.214;2022-07-12T00:44:43;10.80;99.90
9237;DHT22;24579;42.810;23.214;2022-07-12T00:47:22;10.80;99.90
9237;DHT22;24579;42.810;23.214;2022-07-12T00:49:57;10.70;99.90
9237;DHT22;24579;42.810;23.214;2022-07-12T00:52:28;10.80;99.90
9237;DHT22;24579;42.810;23.214;2022-07-12T00:55:06;10.90;99.90
9237;DHT22;24579;42.810;23.214;2022-07-12T00:57:44;10.70;99.90
9237;DHT22;24579;42.810;23.214;2022-07-12T01:00:34;10.50;99.90
9237;DHT22;24579;42.810;23.214;2022-07-12T01:03:03;10.70;99.90
9237;DHT22;24579;42.810;23.214;2022-07-12T01:05:30;10.80;99.90
9237;DHT22;24579;42.810;23.214;2022-07-12T01:08:07;10.80;99.90
9237;DHT22;24579;42.810;23.214;2022-07-12T01:10:45;11.10;99.90
9237;DHT22;24579;42.810;23.214;2022-07-12T01:13:19;11.30;99.90
9237;DHT22;24579;42.810;23.214;2022-07-12T01:16:03;11.40;99.90
9237;DHT22;24579;42.810;23.214;2022-07-12T01:18:46;11.70;99.90
9237;DHT22;24579;42.810;23.214;2022-07-12T01:21:26;11.80;99.90
9237;DHT22;24579;42.810;23.214;2022-07-12T01:23:58;11.70;99.90
9237;DHT22;24579;42.810;23.214;2022-07-12T01:26:32;11.60;99.90
9237;DHT22;24579;42.810;23.214;2022-07-12T01:29:07;11.50;99.90
9237;DHT22;24579;42.810;23.214;2022-07-12T01:31:40;11.50;99.90
9237;DHT22;24579;42.810;23.214;2022-07-12T01:34:24;11.10;99.90
9237;DHT22;24579;42.810;23.214;2022-07-12T01:36:56;11.10;99.90
9237;DHT22;24579;42.810;23.214;2022-07-12T01:39:32;10.90;99.90
9237;DHT22;24579;42.810;23.214;2022-07-12T01:42:05;11.00;99.90
9237;DHT22;24579;42.810;23.214;2022-07-12T01:44:42;11.00;99.90
9237;DHT22;24579;42.810;23.214;2022-07-12T01:47:11;10.70;99.90
9237;DHT22;24579;42.810;23.214;2022-07-12T01:49:49;10.70;99.90
9237;DHT22;24579;42.810;23.214;2022-07-12T01:52:25;10.80;99.90
9237;DHT22;24579;42.810;23.214;2022-07-12T01:55:11;10.70;99.90
9237;DHT22;24579;42.810;23.214;2022-07-12T01:57:49;10.80;99.90
9237;DHT22;24579;42.810;23.214;2022-07-12T02:00:23;10.70;99.90
9237;DHT22;24579;42.810;23.214;2022-07-12T02:02:51;10.70;99.90
9237;DHT22;24579;42.810;23.214;2022-07-12T02:05:30;10.80;99.90
9237;DHT22;24579;42.810;23.214;2022-07-12T02:08:02;10.70;99.90
9237;DHT22;24579;42.810;23.214;2022-07-12T02:10:36;10.70;99.90
9237;DHT22;24579;42.810;23.214;2022-07-12T02:13:06;10.70;99.90
9237;DHT22;24579;42.810;23.214;2022-07-12T02:15:54;10.70;99.90
9237;DHT22;24579;42.810;23.214;2022-07-12T02:18:25;10.80;99.90
9237;DHT22;24579;42.810;23.214;2022-07-12T02:20:54;10.90;99.90
9237;DHT22;24579;42.810;23.214;2022-07-12T02:23:29;11.10;99.90
9237;DHT22;24579;42.810;23.214;2022-07-12T02:26:10;10.90;99.90
9237;DHT22;24579;42.810;23.214;2022-07-12T02:29:04;10.80;99.90
9237;DHT22;24579;42.810;23.214;2022-07-12T02:31:32;10.90;99.90
9237;DHT22;24579;42.810;23.214;2022-07-12T02:34:07;10.90;99.90
9237;DHT22;24579;42.810;23.214;2022-07-12T02:36:45;10.90;99.90
9237;DHT22;24579;42.810;23.214;2022-07-12T02:39:21;10.80;99.90
9237;DHT22;24579;42.810;23.214;2022-07-12T02:41:58;10.50;99.90
9237;DHT22;24579;42.810;23.214;2022-07-12T02:44:28;10.20;99.90
9237;DHT22;24579;42.810;23.214;2022-07-12T02:47:07;10.00;99.90
9237;DHT22;24579;42.810;23.214;2022-07-12T02:49:40;10.10;99.90
9237;DHT22;24579;42.810;23.214;2022-07-12T02:52:14;10.40;99.90
9237;DHT22;24579;42.810;23.214;2022-07-12T02:54:50;10.70;99.90
9237;DHT22;24579;42.810;23.214;2022-07-12T02:57:21;10.80;99.90
9237;DHT22;24579;42.810;23.214;2022-07-12T02:59:52;10.80;99.90
9237;DHT22;24579;42.810;23.214;2022-07-12T03:02:26;10.80;99.90
9237;DHT22;24579;42.810;23.214;2022-07-12T03:04:57;10.80;99.90
9237;DHT22;24579;42.810;23.214;2022-07-12T03:07:35;10.80;99.90
9237;DHT22;24579;42.810;23.214;2022-07-12T03:10:18;10.80;99.90
9237;DHT22;24579;42.810;23.214;2022-07-12T03:12:55;10.70;99.90
9237;DHT22;24579;42.810;23.214;2022-07-12T03:15:27;10.70;99.90
9237;DHT22;24579;42.810;23.214;2022-07-12T03:18:03;10.70;99.90
9237;DHT22;24579;42.810;23.214;2022-07-12T03:20:37;10.70;99.90
9237;DHT22;24579;42.810;23.214;2022-07-12T03:23:08;10.70;99.90
9237;DHT22;24579;42.810;23.214;2022-07-12T03:25:49;10.60;99.90
9237;DHT22;24579;42.810;23.214;2022-07-12T03:28:24;10.10;99.90
9237;DHT22;24579;42.810;23.214;2022-07-12T03:30:59;10.00;99.90
9237;DHT22;24579;42.810;23.214;2022-07-12T03:33:33;9.90;99.90
9237;DHT22;24579;42.810;23.214;2022-07-12T03:36:10;10.30;99.90
9237;DHT22;24579;42.810;23.214;2022-07-12T03:39:04;10.40;99.90
9237;DHT22;24579;42.810;23.214;2022-07-12T03:41:37;10.70;99.90
9237;DHT22;24579;42.810;23.214;2022-07-12T03:44:16;10.70;99.90
9237;DHT22;24579;42.810;23.214;2022-07-12T03:46:51;10.50;99.90
9237;DHT22;24579;42.810;23.214;2022-07-12T03:49:25;10.20;99.90
9237;DHT22;24579;42.810;23.214;2022-07-12T03:52:01;10.50;99.90
9237;DHT22;24579;42.810;23.214;2022-07-12T03:54:32;10.70;99.90
9237;DHT22;24579;42.810;23.214;2022-07-12T03:57:01;10.90;99.90
9237;DHT22;24579;42.810;23.214;2022-07-12T03:59:48;11.00;99.90
9237;DHT22;24579;42.810;23.214;2022-07-12T04:02:25;11.10;99.90
9237;DHT22;24579;42.810;23.214;2022-07-12T04:05:01;11.20;99.90
9237;DHT22;24579;42.810;23.214;2022-07-12T04:07:43;11.10;99.90
9237;DHT22;24579;42.810;23.214;2022-07-12T04:10:18;11.40;99.90
9237;DHT22;24579;42.810;23.214;2022-07-12T04:12:49;11.50;99.90
9237;DHT22;24579;42.810;23.214;2022-07-12T04:15:25;11.60;99.90
9237;DHT22;24579;42.810;23.214;2022-07-12T04:17:54;11.60;99.90
9237;DHT22;24579;42.810;23.214;2022-07-12T04:20:34;11.70;99.90
9237;DHT22;24579;42.810;23.214;2022-07-12T04:23:06;11.80;99.90
9237;DHT22;24579;42.810;23.214;2022-07-12T04:25:38;11.80;99.90
9237;DHT22;24579;42.810;23.214;2022-07-12T04:28:16;12.00;99.90
9237;DHT22;24579;42.810;23.214;2022-07-12T04:31:20;12.10;99.90
9237;DHT22;24579;42.810;23.214;2022-07-12T04:34:01;12.20;99.90
9237;DHT22;24579;42.810;23.214;2022-07-12T04:37:01;12.20;99.90
9237;DHT22;24579;42.810;23.214;2022-07-12T04:39:30;12.10;99.90
9237;DHT22;24579;42.810;23.214;2022-07-12T04:41:59;11.80;99.90
9237;DHT22;24579;42.810;23.214;2022-07-12T04:44:27;12.00;99.90
9237;DHT22;24579;42.810;23.214;2022-07-12T04:47:02;12.30;99.90
9237;DHT22;24579;42.810;23.214;2022-07-12T04:49:55;12.50;99.90
9237;DHT22;24579;42.810;23.214;2022-07-12T04:52:26;12.50;99.90
9237;DHT22;24579;42.810;23.214;2022-07-12T04:54:55;12.60;99.90
9237;DHT22;24579;42.810;23.214;2022-07-12T04:57:23;12.80;99.90
9237;DHT22;24579;42.810;23.214;2022-07-12T04:59:59;12.80;99.90
9237;DHT22;24579;42.810;23.214;2022-07-12T05:02:37;12.80;99.90
9237;DHT22;24579;42.810;23.214;2022-07-12T05:05:16;13.00;99.90
9237;DHT22;24579;42.810;23.214;2022-07-12T05:07:45;13.10;99.90
9237;DHT22;24579;42.810;23.214;2022-07-12T05:10:18;13.30;99.90
9237;DHT22;24579;42.810;23.214;2022-07-12T05:13:00;13.40;99.90
9237;DHT22;24579;42.810;23.214;2022-07-12T05:15:34;13.50;99.90
9237;DHT22;24579;42.810;23.214;2022-07-12T05:18:13;13.40;99.90
9237;DHT22;24579;42.810;23.214;2022-07-12T05:20:55;13.60;99.90
9237;DHT22;24579;42.810;23.214;2022-07-12T05:23:42;13.70;99.90
9237;DHT22;24579;42.810;23.214;2022-07-12T05:26:23;13.80;99.90
9237;DHT22;24579;42.810;23.214;2022-07-12T05:28:52;13.90;99.90
9237;DHT22;24579;42.810;23.214;2022-07-12T05:31:22;14.20;99.90
9237;DHT22;24579;42.810;23.214;2022-07-12T05:36:48;14.30;99.90
9237;DHT22;24579;42.810;23.214;2022-07-12T05:39:22;14.40;99.90
9237;DHT22;24579;42.810;23.214;2022-07-12T05:41:58;14.50;99.90
9237;DHT22;24579;42.810;23.214;2022-07-12T05:44:29;14.70;99.90
9237;DHT22;24579;42.810;23.214;2022-07-12T05:47:02;15.00;99.90
9237;DHT22;24579;42.810;23.214;2022-07-12T05:49:44;15.10;99.90
9237;DHT22;24579;42.810;23.214;2022-07-12T05:52:18;15.20;99.90
9237;DHT22;24579;42.810;23.214;2022-07-12T05:55:07;15.40;99.90
9237;DHT22;24579;42.810;23.214;2022-07-12T05:57:46;15.40;99.30
9237;DHT22;24579;42.810;23.214;2022-07-12T06:00:19;15.70;99.60
9237;DHT22;24579;42.810;23.214;2022-07-12T06:02:51;15.80;97.80
9237;DHT22;24579;42.810;23.214;2022-07-12T06:05:24;16.00;97.90
9237;DHT22;24579;42.810;23.214;2022-07-12T06:07:58;16.10;98.60
9237;DHT22;24579;42.810;23.214;2022-07-12T06:10:30;16.40;97.60
9237;DHT22;24579;42.810;23.214;2022-07-12T06:13:08;16.50;97.20
9237;DHT22;24579;42.810;23.214;2022-07-12T06:15:51;16.80;96.50
9237;DHT22;24579;42.810;23.214;2022-07-12T06:18:34;16.90;95.60
9237;DHT22;24579;42.810;23.214;2022-07-12T06:24:19;17.10;94.60
9237;DHT22;24579;42.810;23.214;2022-07-12T06:26:46;17.30;94.90
9237;DHT22;24579;42.810;23.214;2022-07-12T06:29:16;17.40;94.50
9237;DHT22;24579;42.810;23.214;2022-07-12T06:31:47;17.50;94.00
9237;DHT22;24579;42.810;23.214;2022-07-12T06:34:16;17.50;91.90
9237;DHT22;24579;42.810;23.214;2022-07-12T06:37:01;17.60;92.20
9237;DHT22;24579;42.810;23.214;2022-07-12T06:39:41;18.00;93.90
9237;DHT22;24579;42.810;23.214;2022-07-12T06:42:18;17.80;93.00
9237;DHT22;24579;42.810;23.214;2022-07-12T06:44:51;17.90;92.50
9237;DHT22;24579;42.810;23.214;2022-07-12T06:47:22;18.10;91.10
9237;DHT22;24579;42.810;23.214;2022-07-12T06:49:57;18.20;89.00
9237;DHT22;24579;42.810;23.214;2022-07-12T06:52:35;18.30;87.40
9237;DHT22;24579;42.810;23.214;2022-07-12T06:55:27;18.40;85.20
9237;DHT22;24579;42.810;23.214;2022-07-12T06:58:01;18.50;85.00
9237;DHT22;24579;42.810;23.214;2022-07-12T07:00:32;18.70;81.60
9237;DHT22;24579;42.810;23.214;2022-07-12T07:02:59;18.90;81.50
9237;DHT22;24579;42.810;23.214;2022-07-12T07:05:28;19.00;80.90
9237;DHT22;24579;42.810;23.214;2022-07-12T07:08:00;19.10;81.40
9237;DHT22;24579;42.810;23.214;2022-07-12T07:10:32;19.20;78.80
9237;DHT22;24579;42.810;23.214;2022-07-12T07:13:08;19.20;79.20
9237;DHT22;24579;42.810;23.214;2022-07-12T07:15:42;19.30;77.00
9237;DHT22;24579;42.810;23.214;2022-07-12T07:18:29;19.40;77.00
9237;DHT22;24579;42.810;23.214;2022-07-12T07:21:16;19.20;75.40
9237;DHT22;24579;42.810;23.214;2022-07-12T07:23:50;19.40;77.10
9237;DHT22;24579;42.810;23.214;2022-07-12T07:26:27;19.50;75.00
9237;DHT22;24579;42.810;23.214;2022-07-12T07:29:10;19.50;76.20
9237;DHT22;24579;42.810;23.214;2022-07-12T07:31:58;19.90;75.00
9237;DHT22;24579;42.810;23.214;2022-07-12T07:34:32;20.00;76.50
9237;DHT22;24579;42.810;23.214;2022-07-12T07:37:03;20.40;74.20
9237;DHT22;24579;42.810;23.214;2022-07-12T07:39:34;20.20;72.20
9237;DHT22;24579;42.810;23.214;2022-07-12T07:42:03;20.40;74.10
9237;DHT22;24579;42.810;23.214;2022-07-12T07:44:39;20.40;73.70
9237;DHT22;24579;42.810;23.214;2022-07-12T07:47:24;20.50;73.10
9237;DHT22;24579;42.810;23.214;2022-07-12T07:50:02;20.80;75.80
9237;DHT22;24579;42.810;23.214;2022-07-12T07:52:41;21.10;66.70
9237;DHT22;24579;42.810;23.214;2022-07-12T07:55:27;21.00;67.30
9237;DHT22;24579;42.810;23.214;2022-07-12T07:58:01;20.80;66.30
9237;DHT22;24579;42.810;23.214;2022-07-12T08:00:51;21.10;68.10
9237;DHT22;24579;42.810;23.214;2022-07-12T08:03:24;21.20;64.80
9237;DHT22;24579;42.810;23.214;2022-07-12T08:06:02;21.20;61.90
9237;DHT22;24579;42.810;23.214;2022-07-12T08:08:55;21.20;61.30
9237;DHT22;24579;42.810;23.214;2022-07-12T08:11:45;21.30;63.50
9237;DHT22;24579;42.810;23.214;2022-07-12T08:14:21;21.10;60.70
9237;DHT22;24579;42.810;23.214;2022-07-12T08:16:56;21.00;60.70
9237;DHT22;24579;42.810;23.214;2022-07-12T08:19:33;21.30;61.00
9237;DHT22;24579;42.810;23.214;2022-07-12T08:22:07;21.30;59.80
9237;DHT22;24579;42.810;23.214;2022-07-12T08:24:43;21.60;59.90
9237;DHT22;24579;42.810;23.214;2022-07-12T08:27:33;21.70;61.00
9237;DHT22;24579;42.810;23.214;2022-07-12T08:30:02;21.80;59.10
9237;DHT22;24579;42.810;23.214;2022-07-12T08:32:45;21.90;58.60
9237;DHT22;24579;42.810;23.214;2022-07-12T08:35:38;22.20;58.30
9237;DHT22;24579;42.810;23.214;2022-07-12T08:38:11;22.30;58.40
9237;DHT22;24579;42.810;23.214;2022-07-12T08:40:49;22.00;58.30
9237;DHT22;24579;42.810;23.214;2022-07-12T08:43:40;21.80;57.30
9237;DHT22;24579;42.810;23.214;2022-07-12T08:46:14;22.00;59.60
9237;DHT22;24579;42.810;23.214;2022-07-12T08:48:49;22.10;60.20
9237;DHT22;24579;42.810;23.214;2022-07-12T08:51:31;22.30;60.80
9237;DHT22;24579;42.810;23.214;2022-07-12T08:54:17;22.70;61.50
9237;DHT22;24579;42.810;23.214;2022-07-12T08:56:52;22.80;60.50
9237;DHT22;24579;42.810;23.214;2022-07-12T08:59:46;23.00;60.00
9237;DHT22;24579;42.810;23.214;2022-07-12T09:02:28;23.20;57.90
9237;DHT22;24579;42.810;23.214;2022-07-12T09:05:13;22.90;57.70
9237;DHT22;24579;42.810;23.214;2022-07-12T09:08:02;23.00;57.40
9237;DHT22;24579;42.810;23.214;2022-07-12T09:10:50;22.90;58.30
9237;DHT22;24579;42.810;23.214;2022-07-12T09:13:48;23.60;57.00
9237;DHT22;24579;42.810;23.214;2022-07-12T09:16:19;24.30;56.90
9237;DHT22;24579;42.810;23.214;2022-07-12T09:19:19;23.60;56.20
9237;DHT22;24579;42.810;23.214;2022-07-12T09:22:03;23.80;56.20
9237;DHT22;24579;42.810;23.214;2022-07-12T09:24:34;23.50;55.90
9237;DHT22;24579;42.810;23.214;2022-07-12T09:27:03;22.90;53.90
9237;DHT22;24579;42.810;23.214;2022-07-12T09:29:59;23.20;55.40
9237;DHT22;24579;42.810;23.214;2022-07-12T09:32:52;23.60;56.70
9237;DHT22;24579;42.810;23.214;2022-07-12T09:36:09;23.60;55.00
9237;DHT22;24579;42.810;23.214;2022-07-12T09:38:54;23.70;55.90
9237;DHT22;24579;42.810;23.214;2022-07-12T09:41:39;23.90;53.90
9237;DHT22;24579;42.810;23.214;2022-07-12T09:44:18;23.90;55.60
9237;DHT22;24579;42.810;23.214;2022-07-12T09:46:48;23.90;54.90
9237;DHT22;24579;42.810;23.214;2022-07-12T09:49:26;23.80;54.70
9237;DHT22;24579;42.810;23.214;2022-07-12T09:52:04;23.90;54.60
9237;DHT22;24579;42.810;23.214;2022-07-12T09:54:44;24.10;55.50
9237;DHT22;24579;42.810;23.214;2022-07-12T09:57:33;24.40;53.50
9237;DHT22;24579;42.810;23.214;2022-07-12T10:00:04;25.10;50.80
9237;DHT22;24579;42.810;23.214;2022-07-12T10:02:40;24.20;51.10
9237;DHT22;24579;42.810;23.214;2022-07-12T10:05:24;23.20;52.40
9237;DHT22;24579;42.810;23.214;2022-07-12T10:07:55;24.10;52.40
9237;DHT22;24579;42.810;23.214;2022-07-12T10:10:38;24.50;50.80
9237;DHT22;24579;42.810;23.214;2022-07-12T10:13:23;24.50;50.80
9237;DHT22;24579;42.810;23.214;2022-07-12T10:16:12;24.40;53.50
9237;DHT22;24579;42.810;23.214;2022-07-12T10:21:55;25.50;52.10
9237;DHT22;24579;42.810;23.214;2022-07-12T10:24:47;25.40;52.50
9237;DHT22;24579;42.810;23.214;2022-07-12T10:27:35;24.30;49.60
9237;DHT22;24579;42.810;23.214;2022-07-12T10:30:19;23.40;51.60
9237;DHT22;24579;42.810;23.214;2022-07-12T10:32:57;23.30;53.70
9237;DHT22;24579;42.810;23.214;2022-07-12T10:35:39;23.50;52.60
9237;DHT22;24579;42.810;23.214;2022-07-12T10:39:16;24.00;51.60
9237;DHT22;24579;42.810;23.214;2022-07-12T10:41:45;24.90;51.60
9237;DHT22;24579;42.810;23.214;2022-07-12T10:44:49;24.20;51.30
9237;DHT22;24579;42.810;23.214;2022-07-12T10:47:33;23.70;53.00
9237;DHT22;24579;42.810;23.214;2022-07-12T10:50:25;23.20;50.20
9237;DHT22;24579;42.810;23.214;2022-07-12T10:53:28;23.60;50.30
9237;DHT22;24579;42.810;23.214;2022-07-12T10:56:14;23.60;50.30
9237;DHT22;24579;42.810;23.214;2022-07-12T10:58:47;23.50;51.10
9237;DHT22;24579;42.810;23.214;2022-07-12T11:01:19;24.00;50.60
9237;DHT22;24579;42.810;23.214;2022-07-12T11:04:10;25.10;52.10
9237;DHT22;24579;42.810;23.214;2022-07-12T11:06:49;24.90;48.20
9237;DHT22;24579;42.810;23.214;2022-07-12T11:09:34;24.40;48.90
9237;DHT22;24579;42.810;23.214;2022-07-12T11:12:08;24.60;50.90
9237;DHT22;24579;42.810;23.214;2022-07-12T11:14:50;24.20;49.10
9237;DHT22;24579;42.810;23.214;2022-07-12T11:17:27;23.80;49.70
9237;DHT22;24579;42.810;23.214;2022-07-12T11:20:08;24.10;49.80
9237;DHT22;24579;42.810;23.214;2022-07-12T11:22:42;24.20;48.30
9237;DHT22;24579;42.810;23.214;2022-07-12T11:25:17;24.80;48.80
9237;DHT22;24579;42.810;23.214;2022-07-12T11:27:52;24.40;47.10
9237;DHT22;24579;42.810;23.214;2022-07-12T11:30:36;24.50;47.00
9237;DHT22;24579;42.810;23.214;2022-07-12T11:33:12;24.70;49.50
9237;DHT22;24579;42.810;23.214;2022-07-12T11:35:45;25.20;49.30
9237;DHT22;24579;42.810;23.214;2022-07-12T11:38:13;25.30;46.90
9237;DHT22;24579;42.810;23.214;2022-07-12T11:40:56;25.00;45.30
9237;DHT22;24579;42.810;23.214;2022-07-12T11:43:32;25.50;49.40
9237;DHT22;24579;42.810;23.214;2022-07-12T11:46:02;25.40;46.70
9237;DHT22;24579;42.810;23.214;2022-07-12T11:48:39;25.40;46.30
9237;DHT22;24579;42.810;23.214;2022-07-12T11:51:14;25.10;44.90
9237;DHT22;24579;42.810;23.214;2022-07-12T11:53:50;25.60;48.60
9237;DHT22;24579;42.810;23.214;2022-07-12T11:56:34;25.00;48.90
9237;DHT22;24579;42.810;23.214;2022-07-12T11:59:07;23.80;49.20
9237;DHT22;24579;42.810;23.214;2022-07-12T12:02:04;24.10;50.40
9237;DHT22;24579;42.810;23.214;2022-07-12T12:04:32;24.70;48.60
9237;DHT22;24579;42.810;23.214;2022-07-12T12:07:05;25.10;48.60
9237;DHT22;24579;42.810;23.214;2022-07-12T12:10:04;25.40;49.20
9237;DHT22;24579;42.810;23.214;2022-07-12T12:12:48;24.90;48.60
9237;DHT22;24579;42.810;23.214;2022-07-12T12:15:32;23.90;49.30
9237;DHT22;24579;42.810;23.214;2022-07-12T12:18:01;24.50;51.80
9237;DHT22;24579;42.810;23.214;2022-07-12T12:23:23;25.40;47.20
9237;DHT22;24579;42.810;23.214;2022-07-12T12:26:11;25.80;48.60
9237;DHT22;24579;42.810;23.214;2022-07-12T12:28:58;26.30;49.80
9237;DHT22;24579;42.810;23.214;2022-07-12T12:31:29;26.20;46.90
9237;DHT22;24579;42.810;23.214;2022-07-12T12:34:11;26.30;49.60
9237;DHT22;24579;42.810;23.214;2022-07-12T12:36:50;26.10;49.40
9237;DHT22;24579;42.810;23.214;2022-07-12T12:39:31;26.10;49.30
9237;DHT22;24579;42.810;23.214;2022-07-12T12:42:05;25.50;47.80
9237;DHT22;24579;42.810;23.214;2022-07-12T12:44:41;25.80;48.40
9237;DHT22;24579;42.810;23.214;2022-07-12T12:47:22;26.00;48.70
9237;DHT22;24579;42.810;23.214;2022-07-12T12:50:14;25.10;47.30
9237;DHT22;24579;42.810;23.214;2022-07-12T12:52:51;25.40;47.80
9237;DHT22;24579;42.810;23.214;2022-07-12T12:55:24;25.30;47.80
9237;DHT22;24579;42.810;23.214;2022-07-12T12:57:53;25.30;47.70
9237;DHT22;24579;42.810;23.214;2022-07-12T13:00:23;25.70;49.00
9237;DHT22;24579;42.810;23.214;2022-07-12T13:03:16;25.80;48.10
9237;DHT22;24579;42.810;23.214;2022-07-12T13:05:51;25.60;47.00
9237;DHT22;24579;42.810;23.214;2022-07-12T13:08:23;25.60;47.30
9237;DHT22;24579;42.810;23.214;2022-07-12T13:10:54;25.40;46.40
9237;DHT22;24579;42.810;23.214;2022-07-12T13:13:43;25.80;46.40
9237;DHT22;24579;42.810;23.214;2022-07-12T13:16:14;25.40;46.80
9237;DHT22;24579;42.810;23.214;2022-07-12T13:18:56;25.50;46.60
9237;DHT22;24579;42.810;23.214;2022-07-12T13:21:33;26.10;47.70
9237;DHT22;24579;42.810;23.214;2022-07-12T13:24:20;26.20;47.10
9237;DHT22;24579;42.810;23.214;2022-07-12T13:27:06;26.20;46.40
9237;DHT22;24579;42.810;23.214;2022-07-12T13:29:39;25.60;45.60
9237;DHT22;24579;42.810;23.214;2022-07-12T13:32:29;25.60;46.70
9237;DHT22;24579;42.810;23.214;2022-07-12T13:35:19;25.60;47.20
9237;DHT22;24579;42.810;23.214;2022-07-12T13:37:46;25.70;45.80
9237;DHT22;24579;42.810;23.214;2022-07-12T13:40:37;25.60;44.80
9237;DHT22;24579;42.810;23.214;2022-07-12T13:43:18;25.90;47.40
9237;DHT22;24579;42.810;23.214;2022-07-12T13:46:06;26.30;47.40
9237;DHT22;24579;42.810;23.214;2022-07-12T13:48:47;26.60;45.90
9237;DHT22;24579;42.810;23.214;2022-07-12T13:51:28;26.00;45.60
9237;DHT22;24579;42.810;23.214;2022-07-12T13:54:04;25.60;45.10
9237;DHT22;24579;42.810;23.214;2022-07-12T13:56:44;25.50;46.40
9237;DHT22;24579;42.810;23.214;2022-07-12T13:59:51;24.90;46.30
9237;DHT22;24579;42.810;23.214;2022-07-12T14:02:21;24.90;46.70
9237;DHT22;24579;42.810;23.214;2022-07-12T14:04:53;25.30;47.80
9237;DHT22;24579;42.810;23.214;2022-07-12T14:07:38;25.30;45.50
9237;DHT22;24579;42.810;23.214;2022-07-12T14:10:14;25.10;46.30
9237;DHT22;24579;42.810;23.214;2022-07-12T14:12:44;25.10;47.10
9237;DHT22;24579;42.810;23.214;2022-07-12T14:15:21;25.20;46.60
9237;DHT22;24579;42.810;23.214;2022-07-12T14:18:31;25.10;47.40
9237;DHT22;24579;42.810;23.214;2022-07-12T14:21:15;25.10;47.40
9237;DHT22;24579;42.810;23.214;2022-07-12T14:23:52;25.30;47.00
9237;DHT22;24579;42.810;23.214;2022-07-12T14:26:21;25.40;47.00
9237;DHT22;24579;42.810;23.214;2022-07-12T14:28:54;25.10;46.10
9237;DHT22;24579;42.810;23.214;2022-07-12T14:31:34;25.10;47.40
9237;DHT22;24579;42.810;23.214;2022-07-12T14:34:21;24.80;46.80
9237;DHT22;24579;42.810;23.214;2022-07-12T14:36:50;25.40;47.20
9237;DHT22;24579;42.810;23.214;2022-07-12T14:39:29;25.40;47.00
9237;DHT22;24579;42.810;23.214;2022-07-12T14:42:09;24.90;46.30
9237;DHT22;24579;42.810;23.214;2022-07-12T14:44:50;25.50;48.30
9237;DHT22;24579;42.810;23.214;2022-07-12T14:47:27;25.10;46.40
9237;DHT22;24579;42.810;23.214;2022-07-12T14:50:01;25.10;47.30
9237;DHT22;24579;42.810;23.214;2022-07-12T14:52:36;25.00;47.80
9237;DHT22;24579;42.810;23.214;2022-07-12T14:55:21;25.60;48.40
9237;DHT22;24579;42.810;23.214;2022-07-12T14:57:58;25.40;46.40
9237;DHT22;24579;42.810;23.214;2022-07-12T15:00:46;25.30;46.00
9237;DHT22;24579;42.810;23.214;2022-07-12T15:03:24;24.90;46.80
9237;DHT22;24579;42.810;23.214;2022-07-12T15:06:11;24.80;47.50
9237;DHT22;24579;42.810;23.214;2022-07-12T15:08:40;24.80;47.90
9237;DHT22;24579;42.810;23.214;2022-07-12T15:11:39;24.70;48.50
9237;DHT22;24579;42.810;23.214;2022-07-12T15:14:10;24.40;48.10
9237;DHT22;24579;42.810;23.214;2022-07-12T15:16:53;24.10;49.20
9237;DHT22;24579;42.810;23.214;2022-07-12T15:19:35;24.20;48.30
9237;DHT22;24579;42.810;23.214;2022-07-12T15:22:11;23.90;48.20
9237;DHT22;24579;42.810;23.214;2022-07-12T15:24:48;23.80;48.10
9237;DHT22;24579;42.810;23.214;2022-07-12T15:27:37;23.50;48.60
9237;DHT22;24579;42.810;23.214;2022-07-12T15:30:13;23.70;49.10
9237;DHT22;24579;42.810;23.214;2022-07-12T15:32:43;23.70;48.70
9237;DHT22;24579;42.810;23.214;2022-07-12T15:35:25;23.40;48.40
9237;DHT22;24579;42.810;23.214;2022-07-12T15:37:56;23.40;50.70
9237;DHT22;24579;42.810;23.214;2022-07-12T15:40:23;23.30;50.90
9237;DHT22;24579;42.810;23.214;2022-07-12T15:42:54;23.20;52.80
9237;DHT22;24579;42.810;23.214;2022-07-12T15:45:25;22.70;51.80
9237;DHT22;24579;42.810;23.214;2022-07-12T15:48:12;22.40;52.50
9237;DHT22;24579;42.810;23.214;2022-07-12T15:50:49;21.80;56.80
9237;DHT22;24579;42.810;23.214;2022-07-12T15:53:44;21.90;55.00
9237;DHT22;24579;42.810;23.214;2022-07-12T15:56:17;21.90;54.00
9237;DHT22;24579;42.810;23.214;2022-07-12T15:58:44;21.50;54.80
9237;DHT22;24579;42.810;23.214;2022-07-12T16:01:15;21.60;55.80
9237;DHT22;24579;42.810;23.214;2022-07-12T16:03:45;21.40;56.50
9237;DHT22;24579;42.810;23.214;2022-07-12T16:06:44;21.80;54.30
9237;DHT22;24579;42.810;23.214;2022-07-12T16:09:21;22.00;53.90
9237;DHT22;24579;42.810;23.214;2022-07-12T16:11:52;22.00;54.00
9237;DHT22;24579;42.810;23.214;2022-07-12T16:14:35;21.80;54.20
9237;DHT22;24579;42.810;23.214;2022-07-12T16:17:05;21.60;54.30
9237;DHT22;24579;42.810;23.214;2022-07-12T16:19:33;21.50;54.50
9237;DHT22;24579;42.810;23.214;2022-07-12T16:22:09;21.50;54.70
9237;DHT22;24579;42.810;23.214;2022-07-12T16:24:43;21.50;55.00
9237;DHT22;24579;42.810;23.214;2022-07-12T16:27:10;21.40;55.80
9237;DHT22;24579;42.810;23.214;2022-07-12T16:29:38;21.40;56.50
9237;DHT22;24579;42.810;23.214;2022-07-12T16:32:13;21.40;55.80
9237;DHT22;24579;42.810;23.214;2022-07-12T16:34:46;21.40;55.70
9237;DHT22;24579;42.810;23.214;2022-07-12T16:37:32;21.40;55.00
9237;DHT22;24579;42.810;23.214;2022-07-12T16:40:07;21.50;54.80
9237;DHT22;24579;42.810;23.214;2022-07-12T16:42:34;21.40;54.90
9237;DHT22;24579;42.810;23.214;2022-07-12T16:45:05;21.30;54.90
9237;DHT22;24579;42.810;23.214;2022-07-12T16:47:49;21.40;55.00
9237;DHT22;24579;42.810;23.214;2022-07-12T16:50:22;21.30;54.40